sensor_id;sensor_type;location;lat;lon;timestamp;pressure;altitude;pressure_sealevel;temperature;humidity
34065;BME280;20339;49.754;20.158;2024-03-08T00:00:31;97164.61;;;0.55;96.79
34065;BME280;20339;49.754;20.158;2024-03-08T00:03:24;97156.58;;;0.55;96.84
34065;BME280;20339;49.754;20.158;2024-03-08T00:06:02;97161.88;;;0.55;96.69
34065;BME280;20339;49.754;20.158;2024-03-08T00:08:37;97162.44;;;0.54;96.60
34065;BME280;20339;49.754;20.158;2024-03-08T00:11:08;97162.39;;;0.55;96.64
34065;BME280;20339;49.754;20.158;2024-03-08T00:13:41;97164.33;;;0.53;96.65
34065;BME280;20339;49.754;20.158;2024-03-08T00:16:18;97163.45;;;0.52;96.38
34065;BME280;20339;49.754;20.158;2024-03-08T00:18:52;97158.86;;;0.53;96.61
34065;BME280;20339;49.754;20.158;2024-03-08T00:21:25;97158.63;;;0.53;96.54
34065;BME280;20339;49.754;20.158;2024-03-08T00:23:59;97156.77;;;0.54;96.78
34065;BME280;20339;49.754;20.158;2024-03-08T00:26:35;97154.41;;;0.52;96.65
34065;BME280;20339;49.754;20.158;2024-03-08T00:29:10;97152.68;;;0.53;96.64
34065;BME280;20339;49.754;20.158;2024-03-08T00:31:42;97150.89;;;0.50;96.56
34065;BME280;20339;49.754;20.158;2024-03-08T00:34:14;97147.16;;;0.48;96.60
34065;BME280;20339;49.754;20.158;2024-03-08T00:36:50;97148.80;;;0.47;96.31
34065;BME280;20339;49.754;20.158;2024-03-08T00:39:24;97146.40;;;0.47;96.42
34065;BME280;20339;49.754;20.158;2024-03-08T00:41:55;97149.16;;;0.47;96.63
34065;BME280;20339;49.754;20.158;2024-03-08T00:44:26;97143.58;;;0.47;96.48
34065;BME280;20339;49.754;20.158;2024-03-08T00:46:57;97142.66;;;0.48;96.68
34065;BME280;20339;49.754;20.158;2024-03-08T00:49:28;97138.93;;;0.46;96.37
34065;BME280;20339;49.754;20.158;2024-03-08T00:52:02;97138.27;;;0.44;96.34
34065;BME280;20339;49.754;20.158;2024-03-08T00:54:40;97140.55;;;0.45;96.67
34065;BME280;20339;49.754;20.158;2024-03-08T00:57:14;97139.10;;;0.47;96.66
34065;BME280;20339;49.754;20.158;2024-03-08T00:59:46;97137.34;;;0.47;96.24
34065;BME280;20339;49.754;20.158;2024-03-08T01:02:16;97132.88;;;0.47;96.22
34065;BME280;20339;49.754;20.158;2024-03-08T01:04:48;97132.55;;;0.48;96.51
34065;BME280;20339;49.754;20.158;2024-03-08T01:07:20;97135.60;;;0.47;96.45
34065;BME280;20339;49.754;20.158;2024-03-08T01:09:53;97133.12;;;0.45;96.19
34065;BME280;20339;49.754;20.158;2024-03-08T01:12:27;97131.55;;;0.42;96.13
34065;BME280;20339;49.754;20.158;2024-03-08T01:15:01;97129.98;;;0.42;96.10
34065;BME280;20339;49.754;20.158;2024-03-08T01:17:32;97125.81;;;0.43;96.01
34065;BME280;20339;49.754;20.158;2024-03-08T01:20:05;97124.31;;;0.39;96.12
34065;BME280;20339;49.754;20.158;2024-03-08T01:22:40;97126.41;;;0.38;96.21
34065;BME280;20339;49.754;20.158;2024-03-08T01:25:11;97123.27;;;0.39;96.36
34065;BME280;20339;49.754;20.158;2024-03-08T01:27:42;97123.20;;;0.38;96.09
34065;BME280;20339;49.754;20.158;2024-03-08T01:30:13;97122.31;;;0.39;95.96
34065;BME280;20339;49.754;20.158;2024-03-08T01:32:45;97114.56;;;0.39;96.15
34065;BME280;20339;49.754;20.158;2024-03-08T01:35:19;97115.98;;;0.41;96.13
34065;BME280;20339;49.754;20.158;2024-03-08T01:37:51;97118.41;;;0.42;96.06
34065;BME280;20339;49.754;20.158;2024-03-08T01:40:25;97113.44;;;0.40;96.01
34065;BME280;20339;49.754;20.158;2024-03-08T01:42:56;97111.64;;;0.39;95.97
34065;BME280;20339;49.754;20.158;2024-03-08T01:45:33;97110.63;;;0.40;96.36
34065;BME280;20339;49.754;20.158;2024-03-08T01:48:05;97104.57;;;0.40;96.08
34065;BME280;20339;49.754;20.158;2024-03-08T01:50:36;97105.86;;;0.37;95.81
34065;BME280;20339;49.754;20.158;2024-03-08T01:53:14;97105.95;;;0.35;95.77
34065;BME280;20339;49.754;20.158;2024-03-08T01:55:51;97102.05;;;0.37;95.96
34065;BME280;20339;49.754;20.158;2024-03-08T01:58:29;97101.40;;;0.40;96.35
34065;BME280;20339;49.754;20.158;2024-03-08T02:01:00;97097.48;;;0.43;96.33
34065;BME280;20339;49.754;20.158;2024-03-08T02:03:36;97094.31;;;0.45;96.20
34065;BME280;20339;49.754;20.158;2024-03-08T02:06:12;97095.04;;;0.42;95.97
34065;BME280;20339;49.754;20.158;2024-03-08T02:08:46;97095.87;;;0.36;95.67
34065;BME280;20339;49.754;20.158;2024-03-08T02:11:21;97093.19;;;0.34;95.64
34065;BME280;20339;49.754;20.158;2024-03-08T02:13:52;97090.52;;;0.33;95.51
34065;BME280;20339;49.754;20.158;2024-03-08T02:16:23;97087.70;;;0.32;95.60
34065;BME280;20339;49.754;20.158;2024-03-08T02:19:07;97093.35;;;0.27;95.54
34065;BME280;20339;49.754;20.158;2024-03-08T02:21:39;97093.75;;;0.14;95.27
34065;BME280;20339;49.754;20.158;2024-03-08T02:24:13;97092.83;;;0.02;95.06
34065;BME280;20339;49.754;20.158;2024-03-08T02:26:44;97093.52;;;-0.06;95.47
34065;BME280;20339;49.754;20.158;2024-03-08T02:29:19;97091.37;;;-0.11;95.56
34065;BME280;20339;49.754;20.158;2024-03-08T02:31:53;97091.30;;;-0.10;95.79
34065;BME280;20339;49.754;20.158;2024-03-08T02:34:25;97090.20;;;-0.05;96.02
34065;BME280;20339;49.754;20.158;2024-03-08T02:36:56;97091.19;;;0.01;95.79
34065;BME280;20339;49.754;20.158;2024-03-08T02:39:32;97085.73;;;0.04;95.92
34065;BME280;20339;49.754;20.158;2024-03-08T02:42:06;97085.45;;;0.02;95.92
34065;BME280;20339;49.754;20.158;2024-03-08T02:44:38;97086.52;;;-0.07;95.16
34065;BME280;20339;49.754;20.158;2024-03-08T02:47:09;97086.36;;;-0.12;95.29
34065;BME280;20339;49.754;20.158;2024-03-08T02:49:40;97088.96;;;-0.12;95.30
34065;BME280;20339;49.754;20.158;2024-03-08T02:52:10;97090.09;;;-0.09;95.57
34065;BME280;20339;49.754;20.158;2024-03-08T02:54:41;97089.41;;;-0.05;95.61
34065;BME280;20339;49.754;20.158;2024-03-08T02:57:13;97087.77;;;-0.10;95.35
34065;BME280;20339;49.754;20.158;2024-03-08T02:59:46;97089.81;;;-0.13;95.25
34065;BME280;20339;49.754;20.158;2024-03-08T03:02:18;97091.39;;;-0.15;95.13
34065;BME280;20339;49.754;20.158;2024-03-08T03:04:49;97089.73;;;-0.13;95.35
34065;BME280;20339;49.754;20.158;2024-03-08T03:07:20;97087.98;;;-0.20;95.12
34065;BME280;20339;49.754;20.158;2024-03-08T03:09:51;97084.23;;;-0.33;94.98
34065;BME280;20339;49.754;20.158;2024-03-08T03:12:22;97089.11;;;-0.41;94.76
34065;BME280;20339;49.754;20.158;2024-03-08T03:14:53;97090.84;;;-0.47;94.78
34065;BME280;20339;49.754;20.158;2024-03-08T03:17:30;97091.00;;;-0.50;94.75
34065;BME280;20339;49.754;20.158;2024-03-08T03:20:06;97093.44;;;-0.52;94.57
34065;BME280;20339;49.754;20.158;2024-03-08T03:22:42;97090.95;;;-0.55;94.50
34065;BME280;20339;49.754;20.158;2024-03-08T03:25:19;97091.60;;;-0.62;94.54
34065;BME280;20339;49.754;20.158;2024-03-08T03:27:58;97091.00;;;-0.66;94.44
34065;BME280;20339;49.754;20.158;2024-03-08T03:30:29;97091.45;;;-0.65;94.39
34065;BME280;20339;49.754;20.158;2024-03-08T03:33:05;97089.76;;;-0.67;94.51
34065;BME280;20339;49.754;20.158;2024-03-08T03:35:37;97088.27;;;-0.68;94.51
34065;BME280;20339;49.754;20.158;2024-03-08T03:38:10;97088.99;;;-0.68;94.32
34065;BME280;20339;49.754;20.158;2024-03-08T03:40:46;97090.39;;;-0.69;94.32
34065;BME280;20339;49.754;20.158;2024-03-08T03:43:18;97091.52;;;-0.73;94.22
34065;BME280;20339;49.754;20.158;2024-03-08T03:45:51;97089.47;;;-0.75;94.33
34065;BME280;20339;49.754;20.158;2024-03-08T03:48:25;97086.98;;;-0.78;94.43
34065;BME280;20339;49.754;20.158;2024-03-08T03:50:58;97088.59;;;-0.79;94.32
34065;BME280;20339;49.754;20.158;2024-03-08T03:53:34;97090.29;;;-0.84;93.94
34065;BME280;20339;49.754;20.158;2024-03-08T03:56:07;97088.45;;;-0.85;94.22
34065;BME280;20339;49.754;20.158;2024-03-08T03:58:40;97083.80;;;-0.84;94.18
34065;BME280;20339;49.754;20.158;2024-03-08T04:01:13;97086.54;;;-0.82;94.28
34065;BME280;20339;49.754;20.158;2024-03-08T04:03:47;97082.41;;;-0.84;94.02
34065;BME280;20339;49.754;20.158;2024-03-08T04:06:20;97080.29;;;-0.80;94.20
34065;BME280;20339;49.754;20.158;2024-03-08T04:08:52;97076.73;;;-0.75;94.15
34065;BME280;20339;49.754;20.158;2024-03-08T04:11:28;97073.91;;;-0.71;94.13
34065;BME280;20339;49.754;20.158;2024-03-08T04:14:03;97073.38;;;-0.66;94.42
34065;BME280;20339;49.754;20.158;2024-03-08T04:16:34;97075.91;;;-0.63;94.25
34065;BME280;20339;49.754;20.158;2024-03-08T04:19:10;97075.26;;;-0.61;94.36
34065;BME280;20339;49.754;20.158;2024-03-08T04:21:41;97074.11;;;-0.58;94.43
34065;BME280;20339;49.754;20.158;2024-03-08T04:24:12;97073.70;;;-0.55;94.33
34065;BME280;20339;49.754;20.158;2024-03-08T04:26:43;97077.55;;;-0.51;94.22
34065;BME280;20339;49.754;20.158;2024-03-08T04:29:14;97070.41;;;-0.50;94.21
34065;BME280;20339;49.754;20.158;2024-03-08T04:31:47;97074.06;;;-0.46;94.61
34065;BME280;20339;49.754;20.158;2024-03-08T04:34:18;97075.82;;;-0.44;94.35
34065;BME280;20339;49.754;20.158;2024-03-08T04:36:49;97077.62;;;-0.44;94.50
34065;BME280;20339;49.754;20.158;2024-03-08T04:39:22;97083.08;;;-0.46;94.17
34065;BME280;20339;49.754;20.158;2024-03-08T04:41:56;97087.11;;;-0.53;93.73
34065;BME280;20339;49.754;20.158;2024-03-08T04:44:32;97089.32;;;-0.55;93.69
34065;BME280;20339;49.754;20.158;2024-03-08T04:47:04;97089.16;;;-0.59;93.59
34065;BME280;20339;49.754;20.158;2024-03-08T04:49:38;97087.92;;;-0.61;93.97
34065;BME280;20339;49.754;20.158;2024-03-08T04:52:09;97093.16;;;-0.58;94.14
34065;BME280;20339;49.754;20.158;2024-03-08T04:54:41;97095.66;;;-0.62;93.87
34065;BME280;20339;49.754;20.158;2024-03-08T04:57:12;97092.40;;;-0.64;93.87
34065;BME280;20339;49.754;20.158;2024-03-08T04:59:43;97090.91;;;-0.66;93.54
34065;BME280;20339;49.754;20.158;2024-03-08T05:02:16;97091.52;;;-0.64;93.81
34065;BME280;20339;49.754;20.158;2024-03-08T05:04:50;97095.48;;;-0.66;93.73
34065;BME280;20339;49.754;20.158;2024-03-08T05:07:21;97097.80;;;-0.69;93.52
34065;BME280;20339;49.754;20.158;2024-03-08T05:09:53;97098.16;;;-0.73;93.71
34065;BME280;20339;49.754;20.158;2024-03-08T05:12:29;97099.08;;;-0.70;93.74
34065;BME280;20339;49.754;20.158;2024-03-08T05:15:02;97100.81;;;-0.65;93.81
34065;BME280;20339;49.754;20.158;2024-03-08T05:17:37;97098.21;;;-0.60;93.95
34065;BME280;20339;49.754;20.158;2024-03-08T05:20:20;97098.34;;;-0.59;93.73
34065;BME280;20339;49.754;20.158;2024-03-08T05:22:51;97096.70;;;-0.60;93.94
34065;BME280;20339;49.754;20.158;2024-03-08T05:25:23;97098.54;;;-0.61;93.55
34065;BME280;20339;49.754;20.158;2024-03-08T05:27:56;97098.03;;;-0.69;93.42
34065;BME280;20339;49.754;20.158;2024-03-08T05:30:30;97097.09;;;-0.73;93.35
34065;BME280;20339;49.754;20.158;2024-03-08T05:33:04;97096.95;;;-0.77;93.52
34065;BME280;20339;49.754;20.158;2024-03-08T05:35:36;97101.02;;;-0.83;93.34
34065;BME280;20339;49.754;20.158;2024-03-08T05:38:07;97100.35;;;-0.87;93.22
34065;BME280;20339;49.754;20.158;2024-03-08T05:40:42;97107.02;;;-0.93;93.23
34065;BME280;20339;49.754;20.158;2024-03-08T05:43:13;97103.11;;;-0.98;93.18
34065;BME280;20339;49.754;20.158;2024-03-08T05:45:47;97105.29;;;-1.00;93.37
34065;BME280;20339;49.754;20.158;2024-03-08T05:48:23;97105.70;;;-0.99;93.32
34065;BME280;20339;49.754;20.158;2024-03-08T05:50:57;97102.95;;;-0.98;93.32
34065;BME280;20339;49.754;20.158;2024-03-08T05:53:28;97103.69;;;-0.97;93.40
34065;BME280;20339;49.754;20.158;2024-03-08T05:56:07;97104.81;;;-0.96;93.24
34065;BME280;20339;49.754;20.158;2024-03-08T05:58:41;97102.50;;;-0.93;93.59
34065;BME280;20339;49.754;20.158;2024-03-08T06:01:13;97106.98;;;-0.89;93.60
34065;BME280;20339;49.754;20.158;2024-03-08T06:03:47;97107.64;;;-0.87;93.37
34065;BME280;20339;49.754;20.158;2024-03-08T06:06:19;97103.83;;;-0.89;93.48
34065;BME280;20339;49.754;20.158;2024-03-08T06:08:51;97103.75;;;-0.88;93.59
34065;BME280;20339;49.754;20.158;2024-03-08T06:11:23;97102.40;;;-0.86;93.76
34065;BME280;20339;49.754;20.158;2024-03-08T06:13:56;97106.84;;;-0.83;93.57
34065;BME280;20339;49.754;20.158;2024-03-08T06:16:32;97100.86;;;-0.84;93.54
34065;BME280;20339;49.754;20.158;2024-03-08T06:19:06;97104.92;;;-0.85;93.52
34065;BME280;20339;49.754;20.158;2024-03-08T06:21:39;97101.23;;;-0.83;93.39
34065;BME280;20339;49.754;20.158;2024-03-08T06:24:11;97104.42;;;-0.84;93.12
34065;BME280;20339;49.754;20.158;2024-03-08T06:26:44;97103.60;;;-0.81;93.59
34065;BME280;20339;49.754;20.158;2024-03-08T06:29:17;97105.13;;;-0.78;93.45
34065;BME280;20339;49.754;20.158;2024-03-08T06:31:49;97104.57;;;-0.77;93.48
34065;BME280;20339;49.754;20.158;2024-03-08T06:34:22;97100.89;;;-0.74;93.32
34065;BME280;20339;49.754;20.158;2024-03-08T06:36:53;97099.80;;;-0.68;93.51
34065;BME280;20339;49.754;20.158;2024-03-08T06:39:31;97098.59;;;-0.58;93.96
34065;BME280;20339;49.754;20.158;2024-03-08T06:42:05;97098.02;;;-0.51;93.82
34065;BME280;20339;49.754;20.158;2024-03-08T06:44:42;97100.42;;;-0.44;93.90
34065;BME280;20339;49.754;20.158;2024-03-08T06:47:18;97101.33;;;-0.38;93.80
34065;BME280;20339;49.754;20.158;2024-03-08T06:49:50;97100.20;;;-0.29;94.09
34065;BME280;20339;49.754;20.158;2024-03-08T06:52:24;97100.02;;;-0.29;93.43
34065;BME280;20339;49.754;20.158;2024-03-08T06:54:57;97095.77;;;-0.30;93.76
34065;BME280;20339;49.754;20.158;2024-03-08T06:57:35;97098.78;;;-0.29;93.47
34065;BME280;20339;49.754;20.158;2024-03-08T07:00:11;97096.09;;;-0.31;93.36
34065;BME280;20339;49.754;20.158;2024-03-08T07:02:48;97099.38;;;-0.35;93.14
34065;BME280;20339;49.754;20.158;2024-03-08T07:05:19;97100.54;;;-0.32;93.39
34065;BME280;20339;49.754;20.158;2024-03-08T07:07:51;97099.29;;;-0.22;93.84
34065;BME280;20339;49.754;20.158;2024-03-08T07:10:24;97097.13;;;-0.15;93.52
34065;BME280;20339;49.754;20.158;2024-03-08T07:12:56;97098.55;;;-0.14;93.37
34065;BME280;20339;49.754;20.158;2024-03-08T07:15:28;97099.98;;;-0.11;93.51
34065;BME280;20339;49.754;20.158;2024-03-08T07:18:02;97099.08;;;-0.07;93.31
34065;BME280;20339;49.754;20.158;2024-03-08T07:20:33;97100.42;;;-0.09;92.90
34065;BME280;20339;49.754;20.158;2024-03-08T07:23:07;97101.27;;;-0.13;93.18
34065;BME280;20339;49.754;20.158;2024-03-08T07:25:38;97107.48;;;-0.11;93.26
34065;BME280;20339;49.754;20.158;2024-03-08T07:28:14;97105.36;;;-0.06;93.18
34065;BME280;20339;49.754;20.158;2024-03-08T07:30:46;97103.82;;;-0.14;92.69
34065;BME280;20339;49.754;20.158;2024-03-08T07:33:33;97105.23;;;-0.12;93.06
34065;BME280;20339;49.754;20.158;2024-03-08T07:36:07;97106.80;;;-0.13;92.43
34065;BME280;20339;49.754;20.158;2024-03-08T07:38:39;97106.27;;;-0.18;92.99
34065;BME280;20339;49.754;20.158;2024-03-08T07:41:13;97102.40;;;-0.11;93.15
34065;BME280;20339;49.754;20.158;2024-03-08T07:43:46;97100.32;;;-0.03;93.32
34065;BME280;20339;49.754;20.158;2024-03-08T07:46:20;97105.06;;;0.06;93.09
34065;BME280;20339;49.754;20.158;2024-03-08T07:48:54;97099.91;;;0.12;93.12
34065;BME280;20339;49.754;20.158;2024-03-08T07:51:26;97101.11;;;0.16;93.09
34065;BME280;20339;49.754;20.158;2024-03-08T07:53:57;97098.70;;;0.16;92.60
34065;BME280;20339;49.754;20.158;2024-03-08T07:56:32;97100.46;;;0.16;92.52
34065;BME280;20339;49.754;20.158;2024-03-08T07:59:05;97099.58;;;0.21;92.82
34065;BME280;20339;49.754;20.158;2024-03-08T08:01:38;97096.08;;;0.30;93.18
34065;BME280;20339;49.754;20.158;2024-03-08T08:04:08;97098.02;;;0.31;92.61
34065;BME280;20339;49.754;20.158;2024-03-08T08:06:42;97098.05;;;0.31;92.80
34065;BME280;20339;49.754;20.158;2024-03-08T08:09:13;97091.23;;;0.35;92.41
34065;BME280;20339;49.754;20.158;2024-03-08T08:11:58;97093.30;;;0.36;92.80
34065;BME280;20339;49.754;20.158;2024-03-08T08:14:33;97097.64;;;0.25;92.10
34065;BME280;20339;49.754;20.158;2024-03-08T08:17:10;97096.59;;;0.09;91.99
34065;BME280;20339;49.754;20.158;2024-03-08T08:19:44;97095.88;;;0.02;91.76
34065;BME280;20339;49.754;20.158;2024-03-08T08:22:19;97100.98;;;0.02;92.14
34065;BME280;20339;49.754;20.158;2024-03-08T08:24:51;97096.77;;;0.07;92.07
34065;BME280;20339;49.754;20.158;2024-03-08T08:27:24;97096.35;;;-0.02;91.64
34065;BME280;20339;49.754;20.158;2024-03-08T08:29:58;97094.61;;;-0.04;91.88
34065;BME280;20339;49.754;20.158;2024-03-08T08:32:40;97098.23;;;-0.00;91.75
34065;BME280;20339;49.754;20.158;2024-03-08T08:35:14;97097.88;;;0.04;92.10
34065;BME280;20339;49.754;20.158;2024-03-08T08:37:49;97095.20;;;0.04;91.88
34065;BME280;20339;49.754;20.158;2024-03-08T08:40:22;97092.78;;;0.11;91.89
34065;BME280;20339;49.754;20.158;2024-03-08T08:42:55;97091.42;;;0.05;91.54
34065;BME280;20339;49.754;20.158;2024-03-08T08:45:27;97091.98;;;0.17;92.04
34065;BME280;20339;49.754;20.158;2024-03-08T08:47:58;97087.02;;;0.32;92.35
34065;BME280;20339;49.754;20.158;2024-03-08T08:50:33;97086.52;;;0.39;92.10
34065;BME280;20339;49.754;20.158;2024-03-08T08:53:09;97086.41;;;0.42;91.84
34065;BME280;20339;49.754;20.158;2024-03-08T08:55:41;97088.80;;;0.50;92.05
34065;BME280;20339;49.754;20.158;2024-03-08T08:58:12;97092.02;;;0.56;92.23
34065;BME280;20339;49.754;20.158;2024-03-08T09:00:45;97090.44;;;0.54;91.75
34065;BME280;20339;49.754;20.158;2024-03-08T09:03:16;97088.60;;;0.58;91.87
34065;BME280;20339;49.754;20.158;2024-03-08T09:05:47;97091.64;;;0.64;91.98
34065;BME280;20339;49.754;20.158;2024-03-08T09:08:18;97088.91;;;0.58;91.42
34065;BME280;20339;49.754;20.158;2024-03-08T09:10:49;97088.20;;;0.53;91.29
34065;BME280;20339;49.754;20.158;2024-03-08T09:13:23;97090.15;;;0.36;90.64
34065;BME280;20339;49.754;20.158;2024-03-08T09:15:58;97088.70;;;0.31;91.08
34065;BME280;20339;49.754;20.158;2024-03-08T09:18:31;97089.21;;;0.38;91.42
34065;BME280;20339;49.754;20.158;2024-03-08T09:21:03;97088.41;;;0.41;91.00
34065;BME280;20339;49.754;20.158;2024-03-08T09:23:39;97084.76;;;0.38;90.85
34065;BME280;20339;49.754;20.158;2024-03-08T09:26:13;97085.45;;;0.35;90.93
34065;BME280;20339;49.754;20.158;2024-03-08T09:28:47;97087.54;;;0.29;90.60
34065;BME280;20339;49.754;20.158;2024-03-08T09:31:21;97083.45;;;0.30;90.70
34065;BME280;20339;49.754;20.158;2024-03-08T09:33:56;97078.46;;;0.39;91.44
34065;BME280;20339;49.754;20.158;2024-03-08T09:36:29;97082.39;;;0.50;91.07
34065;BME280;20339;49.754;20.158;2024-03-08T09:39:05;97080.95;;;0.40;90.43
34065;BME280;20339;49.754;20.158;2024-03-08T09:41:37;97079.50;;;0.38;90.54
34065;BME280;20339;49.754;20.158;2024-03-08T09:44:11;97077.53;;;0.41;90.52
34065;BME280;20339;49.754;20.158;2024-03-08T09:46:43;97078.27;;;0.30;89.95
34065;BME280;20339;49.754;20.158;2024-03-08T09:49:18;97076.82;;;0.25;90.09
34065;BME280;20339;49.754;20.158;2024-03-08T09:51:51;97077.75;;;0.33;90.35
34065;BME280;20339;49.754;20.158;2024-03-08T09:54:22;97079.24;;;0.32;90.13
34065;BME280;20339;49.754;20.158;2024-03-08T09:57:01;97075.17;;;0.28;90.07
34065;BME280;20339;49.754;20.158;2024-03-08T09:59:37;97078.74;;;0.41;90.88
34065;BME280;20339;49.754;20.158;2024-03-08T10:02:18;97078.97;;;0.55;90.57
34065;BME280;20339;49.754;20.158;2024-03-08T10:04:50;97079.02;;;0.66;90.79
34065;BME280;20339;49.754;20.158;2024-03-08T10:07:30;97076.79;;;0.59;89.94
34065;BME280;20339;49.754;20.158;2024-03-08T10:10:13;97078.03;;;0.55;90.24
34065;BME280;20339;49.754;20.158;2024-03-08T10:12:50;97081.35;;;0.67;90.29
34065;BME280;20339;49.754;20.158;2024-03-08T10:15:24;97078.42;;;0.65;89.99
34065;BME280;20339;49.754;20.158;2024-03-08T10:18:00;97079.78;;;0.67;89.95
34065;BME280;20339;49.754;20.158;2024-03-08T10:20:36;97076.49;;;0.75;90.47
34065;BME280;20339;49.754;20.158;2024-03-08T10:23:09;97076.52;;;0.78;90.08
34065;BME280;20339;49.754;20.158;2024-03-08T10:25:42;97077.79;;;0.82;89.99
34065;BME280;20339;49.754;20.158;2024-03-08T10:28:18;97078.14;;;0.82;90.07
34065;BME280;20339;49.754;20.158;2024-03-08T10:30:54;97075.70;;;0.88;90.40
34065;BME280;20339;49.754;20.158;2024-03-08T10:33:27;97078.58;;;1.02;90.60
34065;BME280;20339;49.754;20.158;2024-03-08T10:36:00;97077.06;;;1.00;89.95
34065;BME280;20339;49.754;20.158;2024-03-08T10:38:38;97069.61;;;0.94;89.81
34065;BME280;20339;49.754;20.158;2024-03-08T10:41:10;97069.11;;;0.87;89.70
34065;BME280;20339;49.754;20.158;2024-03-08T10:43:51;97066.46;;;0.83;89.71
34065;BME280;20339;49.754;20.158;2024-03-08T10:46:41;97068.63;;;0.88;90.00
34065;BME280;20339;49.754;20.158;2024-03-08T10:49:25;97066.70;;;0.88;89.90
34065;BME280;20339;49.754;20.158;2024-03-08T10:52:01;97068.90;;;1.01;90.44
34065;BME280;20339;49.754;20.158;2024-03-08T10:54:36;97067.91;;;1.21;90.77
34065;BME280;20339;49.754;20.158;2024-03-08T10:57:13;97066.02;;;1.19;89.99
34065;BME280;20339;49.754;20.158;2024-03-08T10:59:47;97065.08;;;1.23;90.24
34065;BME280;20339;49.754;20.158;2024-03-08T11:02:19;97064.37;;;1.32;90.44
34065;BME280;20339;49.754;20.158;2024-03-08T11:04:51;97062.82;;;1.43;90.37
34065;BME280;20339;49.754;20.158;2024-03-08T11:07:27;97065.73;;;1.41;89.80
34065;BME280;20339;49.754;20.158;2024-03-08T11:09:58;97060.41;;;1.43;90.06
34065;BME280;20339;49.754;20.158;2024-03-08T11:12:35;97056.88;;;1.58;90.40
34065;BME280;20339;49.754;20.158;2024-03-08T11:15:13;97057.02;;;1.60;89.91
34065;BME280;20339;49.754;20.158;2024-03-08T11:17:53;97056.04;;;1.57;89.79
34065;BME280;20339;49.754;20.158;2024-03-08T11:20:32;97050.09;;;1.58;89.76
34065;BME280;20339;49.754;20.158;2024-03-08T11:23:07;97045.73;;;1.68;90.24
34065;BME280;20339;49.754;20.158;2024-03-08T11:25:42;97041.29;;;1.76;90.03
34065;BME280;20339;49.754;20.158;2024-03-08T11:28:17;97044.02;;;1.69;89.56
34065;BME280;20339;49.754;20.158;2024-03-08T11:31:25;97044.98;;;1.62;89.19
34065;BME280;20339;49.754;20.158;2024-03-08T11:34:01;97038.73;;;1.46;88.88
34065;BME280;20339;49.754;20.158;2024-03-08T11:36:47;97042.63;;;1.37;88.99
34065;BME280;20339;49.754;20.158;2024-03-08T11:39:19;97040.45;;;1.33;89.13
34065;BME280;20339;49.754;20.158;2024-03-08T11:42:01;97038.43;;;1.42;89.39
34065;BME280;20339;49.754;20.158;2024-03-08T11:44:34;97036.96;;;1.51;89.52
34065;BME280;20339;49.754;20.158;2024-03-08T11:47:12;97037.77;;;1.65;89.84
34065;BME280;20339;49.754;20.158;2024-03-08T11:49:44;97039.97;;;1.74;89.78
34065;BME280;20339;49.754;20.158;2024-03-08T11:52:19;97039.63;;;1.88;90.05
34065;BME280;20339;49.754;20.158;2024-03-08T11:54:55;97037.41;;;1.83;89.14
34065;BME280;20339;49.754;20.158;2024-03-08T11:57:27;97035.12;;;1.65;88.70
34065;BME280;20339;49.754;20.158;2024-03-08T12:00:02;97029.16;;;1.65;89.10
34065;BME280;20339;49.754;20.158;2024-03-08T12:02:37;97027.18;;;1.75;89.32
34065;BME280;20339;49.754;20.158;2024-03-08T12:05:16;97025.76;;;1.63;88.51
34065;BME280;20339;49.754;20.158;2024-03-08T12:07:57;97025.62;;;1.48;88.36
34065;BME280;20339;49.754;20.158;2024-03-08T12:10:33;97021.04;;;1.42;88.82
34065;BME280;20339;49.754;20.158;2024-03-08T12:13:09;97020.30;;;1.50;88.95
34065;BME280;20339;49.754;20.158;2024-03-08T12:15:46;97019.78;;;1.56;88.96
34065;BME280;20339;49.754;20.158;2024-03-08T12:18:20;97021.27;;;1.48;88.33
34065;BME280;20339;49.754;20.158;2024-03-08T12:20:54;97016.83;;;1.41;88.36
34065;BME280;20339;49.754;20.158;2024-03-08T12:23:40;97019.25;;;1.45;88.72
34065;BME280;20339;49.754;20.158;2024-03-08T12:26:14;97020.02;;;1.43;88.51
34065;BME280;20339;49.754;20.158;2024-03-08T12:28:47;97019.83;;;1.43;88.71
34065;BME280;20339;49.754;20.158;2024-03-08T12:31:20;97017.20;;;1.45;88.60
34065;BME280;20339;49.754;20.158;2024-03-08T12:33:57;97016.45;;;1.53;88.91
34065;BME280;20339;49.754;20.158;2024-03-08T12:36:39;97017.50;;;1.61;89.21
34065;BME280;20339;49.754;20.158;2024-03-08T12:39:21;97014.33;;;1.77;89.38
34065;BME280;20339;49.754;20.158;2024-03-08T12:41:58;97009.20;;;1.91;89.57
34065;BME280;20339;49.754;20.158;2024-03-08T12:44:36;97005.26;;;2.02;89.53
34065;BME280;20339;49.754;20.158;2024-03-08T12:47:12;97003.13;;;1.96;88.75
34065;BME280;20339;49.754;20.158;2024-03-08T12:49:47;97001.84;;;1.92;88.61
34065;BME280;20339;49.754;20.158;2024-03-08T12:52:19;97001.55;;;1.97;88.91
34065;BME280;20339;49.754;20.158;2024-03-08T12:54:52;96998.24;;;2.07;88.99
34065;BME280;20339;49.754;20.158;2024-03-08T12:57:24;96993.83;;;2.16;89.30
34065;BME280;20339;49.754;20.158;2024-03-08T12:59:59;96989.29;;;2.19;88.97
34065;BME280;20339;49.754;20.158;2024-03-08T13:02:41;96987.55;;;2.25;89.18
34065;BME280;20339;49.754;20.158;2024-03-08T13:05:13;96988.14;;;2.30;89.03
34065;BME280;20339;49.754;20.158;2024-03-08T13:07:49;96984.68;;;2.38;89.08
34065;BME280;20339;49.754;20.158;2024-03-08T13:10:23;96985.31;;;2.40;88.97
34065;BME280;20339;49.754;20.158;2024-03-08T13:12:56;96984.71;;;2.44;89.08
34065;BME280;20339;49.754;20.158;2024-03-08T13:15:34;96988.64;;;2.46;88.94
34065;BME280;20339;49.754;20.158;2024-03-08T13:18:08;96984.96;;;2.38;88.55
34065;BME280;20339;49.754;20.158;2024-03-08T13:20:45;96981.03;;;2.29;88.33
34065;BME280;20339;49.754;20.158;2024-03-08T13:23:25;96982.45;;;2.14;87.76
34065;BME280;20339;49.754;20.158;2024-03-08T13:26:03;96983.27;;;1.99;88.09
34065;BME280;20339;49.754;20.158;2024-03-08T13:28:38;96977.58;;;2.09;88.55
34065;BME280;20339;49.754;20.158;2024-03-08T13:31:11;96975.00;;;2.10;88.48